Time;durP1;ratioP1;P1;durP2;ratioP2;P2;SDS_P1;SDS_P2;PMS_P1;PMS_P2;Temp;Humidity;BMP_temperature;BMP_pressure;BME280_temperature;BME280_humidity;BME280_pressure;Samples;Min_cycle;Max_cycle;Signal;HPM_P1;HPM_P2
2020/12/15 00:02:15;;;;;;;14.93;8.98;;;;;;;1.50;76.54;96891.75;1795816;80;21147;-82
2020/12/15 00:04:42;;;;;;;12.70;7.40;;;;;;;1.43;76.59;96907.50;1795697;80;21135;-82
2020/12/15 00:07:09;;;;;;;19.37;11.28;;;;;;;1.34;76.82;96902.73;1795718;80;21144;-82
2020/12/15 00:09:36;;;;;;;23.15;11.50;;;;;;;1.28;77.11;96917.96;1795619;80;21135;-82
2020/12/15 00:12:03;;;;;;;17.80;9.75;;;;;;;1.23;77.45;96918.58;1795404;80;21148;-82
2020/12/15 00:14:30;;;;;;;20.97;11.68;;;;;;;1.14;77.64;96921.97;1795765;80;21542;-82
2020/12/15 00:16:59;;;;;;;22.73;13.32;;;;;;;1.06;77.92;96931.34;1795802;80;21139;-82
2020/12/15 00:19:27;;;;;;;20.05;10.90;;;;;;;0.96;78.17;96928.87;1795800;80;21504;-82
2020/12/15 00:21:55;;;;;;;19.82;10.45;;;;;;;0.89;78.33;96931.03;1795703;80;21163;-82
2020/12/15 00:24:22;;;;;;;21.23;11.10;;;;;;;0.86;78.51;96941.09;1795702;80;21163;-82
2020/12/15 00:26:49;;;;;;;25.08;13.05;;;;;;;0.88;78.68;96938.57;1795636;80;21132;-82
2020/12/15 00:29:17;;;;;;;19.65;10.93;;;;;;;0.85;78.76;96930.36;1795746;80;21143;-83
2020/12/15 00:31:44;;;;;;;19.23;12.58;;;;;;;0.77;78.86;96938.42;1795627;80;21142;-82
2020/12/15 00:34:12;;;;;;;21.48;11.95;;;;;;;0.77;79.06;96943.64;1795804;80;21131;-82
2020/12/15 00:36:40;;;;;;;21.25;12.15;;;;;;;0.74;79.18;96941.45;1795592;80;21179;-82
2020/12/15 00:39:07;;;;;;;23.18;12.28;;;;;;;0.72;79.29;96940.86;1795692;80;21150;-83
2020/12/15 00:41:34;;;;;;;19.80;11.33;;;;;;;0.70;79.43;96937.63;1795211;80;21147;-82
2020/12/15 00:44:01;;;;;;;17.05;9.53;;;;;;;0.64;79.41;96935.86;1795819;80;21131;-82
2020/12/15 00:46:28;;;;;;;18.90;10.05;;;;;;;0.61;79.54;96934.47;1795765;80;21151;-83
2020/12/15 00:48:55;;;;;;;18.02;9.05;;;;;;;0.63;79.75;96933.77;1795700;80;21168;-82
2020/12/15 00:51:23;;;;;;;15.08;7.47;;;;;;;0.65;79.87;96932.25;1795686;80;21181;-82
2020/12/15 00:53:50;;;;;;;19.10;9.90;;;;;;;0.67;79.81;96933.63;1795891;80;21116;-82
2020/12/15 00:56:18;;;;;;;15.03;8.28;;;;;;;0.77;79.93;96935.30;1795771;80;21523;-82
2020/12/15 00:58:45;;;;;;;16.97;8.88;;;;;;;0.76;79.85;96934.20;1795881;80;21139;-82
2020/12/15 01:01:13;;;;;;;15.55;7.22;;;;;;;0.72;79.88;96933.83;1795638;80;21137;-82
2020/12/15 01:03:41;;;;;;;17.75;9.88;;;;;;;0.73;79.79;96927.61;1795712;80;21143;-82
2020/12/15 01:06:08;;;;;;;15.25;8.55;;;;;;;0.80;79.84;96927.55;1795773;80;21162;-82
2020/12/15 01:08:35;;;;;;;15.58;7.87;;;;;;;0.79;79.91;96930.67;1795954;80;21152;-82
2020/12/15 01:11:02;;;;;;;13.83;7.78;;;;;;;0.76;79.80;96927.69;1795662;80;21117;-82
2020/12/15 01:13:29;;;;;;;11.57;6.50;;;;;;;0.78;79.86;96925.16;1795470;80;21171;-82
2020/12/15 01:15:56;;;;;;;12.35;6.65;;;;;;;0.80;79.78;96928.36;1795850;80;21139;-82
2020/12/15 01:18:26;;;;;;;16.75;8.73;;;;;;;0.86;79.78;96928.05;1795856;80;21531;-82
2020/12/15 01:20:56;;;;;;;12.53;7.90;;;;;;;0.89;79.72;96918.48;1796076;80;21143;-82
2020/12/15 01:23:25;;;;;;;14.58;7.28;;;;;;;0.86;79.75;96913.69;1795989;80;21116;-82
2020/12/15 01:25:52;;;;;;;14.80;8.13;;;;;;;0.83;79.64;96912.28;1796109;80;21155;-82
2020/12/15 01:28:19;;;;;;;13.83;7.20;;;;;;;0.86;79.74;96915.80;1795825;80;21147;-82
2020/12/15 01:30:46;;;;;;;15.13;8.08;;;;;;;0.86;79.76;96911.88;1795798;80;21521;-82
2020/12/15 01:33:13;;;;;;;16.32;8.33;;;;;;;0.85;79.81;96911.59;1795806;80;21515;-82
2020/12/15 01:35:40;;;;;;;14.20;6.80;;;;;;;0.81;79.82;96914.30;1795606;80;21594;-82
2020/12/15 01:38:07;;;;;;;14.63;7.60;;;;;;;0.76;79.83;96908.91;1795365;79;21154;-82
2020/12/15 01:40:34;;;;;;;12.90;7.10;;;;;;;0.70;79.89;96903.71;1795320;80;21503;-82
2020/12/15 01:43:01;;;;;;;13.28;7.35;;;;;;;0.66;79.97;96915.08;1794862;80;21151;-82
2020/12/15 01:45:28;;;;;;;11.65;6.92;;;;;;;0.63;80.03;96912.09;1795276;80;21277;-82
2020/12/15 01:47:55;;;;;;;10.60;6.95;;;;;;;0.62;80.05;96917.02;1795541;80;21095;-82
2020/12/15 01:50:21;;;;;;;12.07;6.42;;;;;;;0.57;80.12;96914.53;1795278;80;21274;-82
2020/12/15 01:52:49;;;;;;;11.45;6.95;;;;;;;0.55;80.16;96907.89;1795184;80;21167;-82
2020/12/15 01:55:18;;;;;;;12.30;6.17;;;;;;;0.54;80.23;96911.00;1768754;80;21136;-82
2020/12/15 01:57:46;;;;;;;16.67;7.60;;;;;;;0.54;80.23;96901.08;1795293;80;21107;-82
2020/12/15 02:00:13;;;;;;;13.18;7.42;;;;;;;0.60;80.21;96904.18;1795256;80;21278;-82
2020/12/15 02:02:41;;;;;;;10.35;6.62;;;;;;;0.62;80.18;96909.98;1795225;80;21276;-82
2020/12/15 02:05:09;;;;;;;11.68;6.87;;;;;;;0.67;80.03;96909.35;1795399;80;21179;-82
2020/12/15 02:07:36;;;;;;;8.85;4.83;;;;;;;0.69;79.93;96908.64;1795209;80;21278;-82
2020/12/15 02:10:05;;;;;;;11.60;7.78;;;;;;;0.67;79.66;96914.06;1795248;80;21300;-83
2020/12/15 02:12:32;;;;;;;10.72;5.72;;;;;;;0.69;79.64;96908.64;1768147;80;21531;-82
2020/12/15 02:14:59;;;;;;;10.70;5.58;;;;;;;0.69;79.57;96914.66;1795338;80;21147;-82
2020/12/15 02:17:26;;;;;;;10.40;4.95;;;;;;;0.69;79.32;96903.42;1795199;80;21132;-82
2020/12/15 02:20:09;;;;;;;14.95;7.83;;;;;;;0.68;79.22;96900.52;1795217;80;21116;-82
2020/12/15 02:22:36;;;;;;;11.93;6.78;;;;;;;0.68;79.27;96909.14;1795243;80;21143;-82
2020/12/15 02:25:08;;;;;;;9.08;5.58;;;;;;;0.67;79.31;96911.96;1795325;80;21476;-82
2020/12/15 02:27:35;;;;;;;11.60;6.20;;;;;;;0.61;79.22;96897.95;1795276;80;21128;-82
2020/12/15 02:30:08;;;;;;;10.68;6.03;;;;;;;0.56;79.27;96909.02;1795323;80;21111;-82
2020/12/15 02:32:36;;;;;;;13.05;6.25;;;;;;;0.56;79.33;96910.33;1795324;80;21290;-82
2020/12/15 02:35:05;;;;;;;12.82;6.87;;;;;;;0.54;79.32;96897.97;1795294;80;21125;-82
2020/12/15 02:37:32;;;;;;;16.60;8.05;;;;;;;0.52;79.25;96899.98;1795098;80;21289;-82
2020/12/15 02:40:06;;;;;;;10.20;5.42;;;;;;;0.48;79.29;96900.62;1795334;80;21163;-82
2020/12/15 02:42:34;;;;;;;14.13;7.72;;;;;;;0.44;79.13;96895.02;1794865;80;21261;-82
2020/12/15 02:45:01;;;;;;;12.37;7.15;;;;;;;0.37;79.40;96894.73;1795261;80;21159;-82
2020/12/15 02:47:28;;;;;;;11.90;6.97;;;;;;;0.37;79.40;96894.73;1795276;80;21159;-82
2020/12/15 02:49:55;;;;;;;8.05;4.28;;;;;;;0.43;79.32;96914.28;1795270;80;21273;-82
2020/12/15 02:52:22;;;;;;;12.90;7.05;;;;;;;0.43;79.33;96909.06;1795140;80;21278;-82
2020/12/15 02:54:51;;;;;;;9.03;4.22;;;;;;;0.51;79.25;96915.84;1795259;80;21318;-82
2020/12/15 02:57:18;;;;;;;14.23;7.58;;;;;;;0.49;79.12;96922.58;1795178;80;21277;-82
2020/12/15 02:59:46;;;;;;;15.13;7.95;;;;;;;0.47;79.25;96918.08;1785418;80;21138;-82
2020/12/15 03:02:20;;;;;;;10.68;5.37;;;;;;;0.42;79.23;96923.09;1771550;81;21122;-82
2020/12/15 03:04:47;;;;;;;13.80;7.12;;;;;;;0.36;79.29;96924.42;1771596;81;21470;-82
2020/12/15 03:07:15;;;;;;;11.97;6.67;;;;;;;0.31;79.38;96922.95;1771545;81;21494;-82
2020/12/15 03:09:42;;;;;;;12.18;6.67;;;;;;;0.25;79.41;96924.55;1771496;81;21130;-83
2020/12/15 03:12:09;;;;;;;11.85;7.00;;;;;;;0.22;79.48;96915.84;1779016;80;21514;-82
2020/12/15 03:14:36;;;;;;;12.58;7.00;;;;;;;0.20;79.55;96910.03;1795239;80;21237;-82
2020/12/15 03:17:03;;;;;;;10.58;4.67;;;;;;;0.17;79.54;96908.64;1795372;80;21174;-82
2020/12/15 03:19:30;;;;;;;12.88;7.47;;;;;;;0.15;79.47;96908.56;1795381;80;21142;-82
2020/12/15 03:21:57;;;;;;;11.75;6.37;;;;;;;0.16;79.66;96906.25;1795269;80;21115;-82
2020/12/15 03:24:24;;;;;;;13.25;7.03;;;;;;;0.16;79.61;96908.34;1795302;80;21273;-83
2020/12/15 03:26:50;;;;;;;12.07;6.97;;;;;;;0.17;79.58;96907.34;1795132;80;21138;-82
2020/12/15 03:29:17;;;;;;;10.75;7.12;;;;;;;0.15;79.60;96916.38;1795303;80;21285;-82
2020/12/15 03:31:44;;;;;;;15.40;8.23;;;;;;;0.12;79.62;96912.34;1795196;80;21147;-82
2020/12/15 03:34:11;;;;;;;15.10;8.80;;;;;;;0.11;79.50;96911.25;1795252;80;21285;-82
2020/12/15 03:36:39;;;;;;;16.15;8.53;;;;;;;0.10;79.46;96916.17;1794248;80;21277;-82
2020/12/15 03:39:08;;;;;;;15.25;9.05;;;;;;;0.05;79.29;96919.40;1793272;80;21142;-82
2020/12/15 03:41:35;;;;;;;14.25;7.80;;;;;;;0.02;79.23;96923.72;1792926;80;21144;-82
2020/12/15 03:44:02;;;;;;;15.50;8.18;;;;;;;-0.01;79.25;96919.69;1793302;80;21154;-82
2020/12/15 03:46:30;;;;;;;13.30;8.13;;;;;;;-0.02;79.39;96918.59;1793371;80;21175;-82
2020/12/15 03:48:57;;;;;;;10.40;6.60;;;;;;;-0.05;79.27;96926.83;1793202;80;21515;-82
2020/12/15 03:51:25;;;;;;;16.07;8.18;;;;;;;-0.08;78.86;96922.83;1793192;80;21144;-82
2020/12/15 03:53:51;;;;;;;15.98;8.35;;;;;;;-0.06;79.13;96918.71;1793276;80;21151;-82
2020/12/15 03:56:18;;;;;;;13.10;6.95;;;;;;;-0.12;78.86;96920.34;1793526;80;21242;-83
2020/12/15 03:58:45;;;;;;;10.15;6.45;;;;;;;-0.20;78.78;96917.93;1793284;80;21108;-82
2020/12/15 04:01:12;;;;;;;15.72;9.23;;;;;;;-0.20;78.78;96917.93;1793260;80;21169;-82
2020/12/15 04:03:39;;;;;;;14.00;7.83;;;;;;;-0.31;79.03;96925.05;1793257;80;21148;-82
2020/12/15 04:06:07;;;;;;;10.93;4.53;;;;;;;-0.36;79.26;96920.45;1793428;80;21138;-82
2020/12/15 04:08:34;;;;;;;14.07;9.13;;;;;;;-0.47;79.43;96921.55;1793162;80;21104;-82
2020/12/15 04:11:01;;;;;;;15.78;8.25;;;;;;;-0.55;79.58;96916.56;1793504;80;21139;-82
2020/12/15 04:13:28;;;;;;;15.23;7.50;;;;;;;-0.56;79.72;96909.25;1792911;80;21143;-82
2020/12/15 04:15:55;;;;;;;16.93;6.37;;;;;;;-0.49;79.65;96918.34;1793493;80;21108;-82
2020/12/15 04:18:22;;;;;;;11.63;6.17;;;;;;;-0.52;79.52;96913.55;1793331;80;21158;-82
2020/12/15 04:20:51;;;;;;;17.12;8.78;;;;;;;-0.67;79.82;96889.81;1793196;80;21188;-82
2020/12/15 04:23:19;;;;;;;17.87;9.53;;;;;;;-0.67;79.82;96889.81;1793252;80;21151;-82
2020/12/15 04:25:56;;;;;;;12.23;7.87;;;;;;;-0.54;79.89;96899.93;1793315;80;21159;-82
2020/12/15 04:28:23;;;;;;;15.70;9.48;;;;;;;-0.48;79.93;96899.11;1793166;80;21107;-82
2020/12/15 04:30:50;;;;;;;12.43;6.78;;;;;;;-0.48;79.93;96899.11;1793168;80;21146;-82
2020/12/15 04:33:17;;;;;;;12.80;7.28;;;;;;;-0.49;79.80;96896.21;1793239;80;21135;-82
2020/12/15 04:35:44;;;;;;;11.85;6.95;;;;;;;-0.45;79.85;96900.01;1793192;80;21099;-82
2020/12/15 04:38:12;;;;;;;12.60;7.10;;;;;;;-0.43;79.84;96908.42;1795295;80;21148;-82
2020/12/15 04:40:40;;;;;;;11.20;5.78;;;;;;;-0.37;79.90;96903.22;1795237;80;21180;-82
2020/12/15 04:43:10;;;;;;;11.70;6.75;;;;;;;-0.34;79.90;96903.31;1794764;80;21644;-82
2020/12/15 04:45:38;;;;;;;11.90;6.30;;;;;;;-0.27;79.83;96910.63;1795391;80;21269;-82
2020/12/15 04:48:08;;;;;;;11.48;6.53;;;;;;;-0.20;79.78;96910.61;1795374;80;21111;-82
2020/12/15 04:50:38;;;;;;;11.63;6.33;;;;;;;-0.19;79.70;96913.02;1795670;80;21104;-82
2020/12/15 04:53:13;;;;;;;12.20;5.63;;;;;;;-0.20;79.60;96914.52;1795496;80;21147;-82
2020/12/15 04:55:41;;;;;;;7.67;4.70;;;;;;;-0.21;79.50;96909.81;1768970;80;21147;-82
2020/12/15 04:58:08;;;;;;;12.75;6.90;;;;;;;-0.19;79.06;96901.29;1795342;80;21155;-82
2020/12/15 05:00:37;;;;;;;13.15;7.17;;;;;;;-0.08;79.31;96907.19;1795257;80;21146;-82
2020/12/15 05:03:05;;;;;;;10.98;6.47;;;;;;;-0.10;79.33;96910.50;1795286;80;21135;-82
2020/12/15 05:05:32;;;;;;;14.03;7.65;;;;;;;-0.12;79.28;96908.61;1795346;80;21479;-82
2020/12/15 05:08:03;;;;;;;6.85;4.28;;;;;;;-0.11;79.31;96911.52;1795223;80;21125;-82
2020/12/15 05:10:30;;;;;;;12.23;6.58;;;;;;;-0.31;79.04;96888.58;1795536;80;21139;-82
2020/12/15 05:12:58;;;;;;;11.28;5.85;;;;;;;-0.16;79.16;96910.00;1794794;80;21340;-82
2020/12/15 05:15:25;;;;;;;11.30;5.83;;;;;;;-0.17;79.15;96918.82;1795296;80;21285;-82
2020/12/15 05:17:58;;;;;;;12.10;6.70;;;;;;;-0.18;79.28;96918.52;1795222;80;21139;-82
2020/12/15 05:20:32;;;;;;;14.63;7.30;;;;;;;-0.19;79.36;96923.44;1794506;80;21626;-82
2020/12/15 05:23:00;;;;;;;12.73;7.55;;;;;;;-0.26;79.32;96922.66;1795293;80;21307;-82
2020/12/15 05:25:35;;;;;;;15.72;7.25;;;;;;;-0.32;79.37;96928.66;1795312;80;21280;-82
2020/12/15 05:28:11;;;;;;;11.30;5.97;;;;;;;-0.50;79.53;96927.16;1795305;80;21618;-82
2020/12/15 05:30:39;;;;;;;13.30;7.37;;;;;;;-0.67;79.68;96910.64;1795478;80;21269;-83
2020/12/15 05:33:16;;;;;;;11.65;7.00;;;;;;;-0.43;79.81;96921.44;1795313;80;21168;-82
2020/12/15 05:35:43;;;;;;;11.93;6.75;;;;;;;-0.43;79.81;96921.44;1795339;80;21088;-82
2020/12/15 05:38:10;;;;;;;13.08;6.85;;;;;;;-0.17;79.49;96925.33;1795645;80;21511;-82
2020/12/15 05:40:39;;;;;;;9.13;5.12;;;;;;;-0.17;79.49;96925.33;1795844;80;21112;-82
2020/12/15 05:43:06;;;;;;;12.53;6.67;;;;;;;0.02;79.01;96928.13;1795820;80;21508;-82
2020/12/15 05:45:35;;;;;;;12.20;7.20;;;;;;;0.09;78.71;96932.31;1795929;80;21131;-82
2020/12/15 05:48:10;;;;;;;12.88;5.85;;;;;;;-0.04;78.35;96910.98;1795825;80;21107;-82
2020/12/15 05:50:38;;;;;;;11.60;6.15;;;;;;;-0.10;78.40;96933.95;1795834;80;21176;-82
2020/12/15 05:53:09;;;;;;;12.23;6.37;;;;;;;-0.10;78.40;96933.95;1795829;80;21123;-82
2020/12/15 05:55:36;;;;;;;14.38;7.10;;;;;;;-0.17;78.56;96927.94;1796090;80;21491;-82
2020/12/15 05:58:07;;;;;;;15.35;6.85;;;;;;;-0.12;78.49;96922.94;1795859;80;21163;-83
2020/12/15 06:00:34;;;;;;;12.33;5.85;;;;;;;-0.06;78.50;96917.41;1795831;80;21488;-82
2020/12/15 06:03:08;;;;;;;11.57;6.03;;;;;;;0.01;77.99;96920.82;1795837;80;21108;-82
2020/12/15 06:05:37;;;;;;;9.48;4.50;;;;;;;0.11;77.51;96921.67;1795831;80;21143;-82
2020/12/15 06:08:06;;;;;;;15.30;6.95;;;;;;;0.22;76.98;96925.77;1795789;80;21138;-82
2020/12/15 06:10:35;;;;;;;10.60;4.60;;;;;;;0.17;77.10;96922.19;1795760;80;21132;-82
2020/12/15 06:13:05;;;;;;;10.28;6.17;;;;;;;0.13;76.66;96938.71;1795280;80;21523;-82
2020/12/15 06:15:32;;;;;;;8.78;4.62;;;;;;;0.03;76.59;96934.95;1795915;80;21135;-82
2020/12/15 06:18:04;;;;;;;14.55;7.05;;;;;;;-0.06;76.60;96936.45;1795718;80;21135;-83
2020/12/15 06:20:35;;;;;;;14.47;7.87;;;;;;;-0.20;77.10;96953.60;1795665;80;21147;-82
2020/12/15 06:23:09;;;;;;;12.05;7.80;;;;;;;-0.28;77.27;96953.32;1795996;80;21113;-82
2020/12/15 06:25:39;;;;;;;14.47;8.85;;;;;;;-0.28;77.27;96953.32;1795837;80;21123;-82
2020/12/15 06:28:13;;;;;;;11.97;6.33;;;;;;;-0.34;77.34;96947.09;1795681;80;21506;-82
2020/12/15 06:30:46;;;;;;;13.65;8.15;;;;;;;-0.39;77.37;96950.01;1795774;80;21172;-82
2020/12/15 06:33:15;;;;;;;15.28;7.85;;;;;;;-0.43;77.55;96941.77;1795854;80;21139;-82
2020/12/15 06:35:48;;;;;;;15.55;7.85;;;;;;;-0.44;77.67;96936.27;1795842;80;21138;-82
2020/12/15 06:38:21;;;;;;;13.03;7.12;;;;;;;-0.50;77.76;96924.56;1795797;80;21147;-83
2020/12/15 06:40:50;;;;;;;15.10;7.15;;;;;;;-0.50;77.79;96928.47;1795603;80;21146;-82
2020/12/15 06:43:32;;;;;;;13.40;6.78;;;;;;;-0.48;77.91;96945.48;1795653;80;21135;-82
2020/12/15 06:46:10;;;;;;;11.80;5.72;;;;;;;-0.46;77.86;96942.18;1795686;80;21155;-81
2020/12/15 06:48:39;;;;;;;21.52;11.18;;;;;;;-0.41;77.72;96948.11;1795972;80;21159;-81
2020/12/15 06:51:06;;;;;;;13.78;7.30;;;;;;;-0.34;77.95;96960.11;1795751;80;21142;-81
2020/12/15 06:53:33;;;;;;;20.05;8.75;;;;;;;-0.35;77.78;96954.61;1795698;80;21167;-81
2020/12/15 06:56:04;;;;;;;15.00;7.62;;;;;;;-0.33;77.45;96963.52;1795845;80;21151;-82
2020/12/15 06:58:32;;;;;;;14.50;8.48;;;;;;;-0.33;77.45;96963.52;1795921;80;21494;-81
2020/12/15 07:00:59;;;;;;;16.90;9.25;;;;;;;-0.34;77.50;96966.63;1795757;80;21542;-81
2020/12/15 07:03:42;;;;;;;13.40;7.80;;;;;;;-0.34;77.56;96965.33;1795743;80;21483;-81
2020/12/15 07:06:16;;;;;;;21.23;10.80;;;;;;;-0.47;77.79;96948.39;1795782;80;21107;-82
2020/12/15 07:08:44;;;;;;;13.95;6.60;;;;;;;-0.37;77.60;96963.12;1795684;79;21147;-82
2020/12/15 07:11:11;;;;;;;14.33;7.90;;;;;;;-0.24;77.35;96961.03;1795557;80;21135;-82
2020/12/15 07:13:38;;;;;;;13.78;6.92;;;;;;;0.14;76.93;96961.20;1795856;80;21142;-82
2020/12/15 07:16:19;;;;;;;18.52;9.08;;;;;;;0.46;76.34;96963.42;1795672;80;21103;-82
2020/12/15 07:18:46;;;;;;;16.50;8.33;;;;;;;0.84;75.98;96963.97;1795932;80;21483;-82
2020/12/15 07:21:13;;;;;;;16.02;9.58;;;;;;;1.13;74.87;96966.56;1795633;80;21151;-82
2020/12/15 07:23:41;;;;;;;17.07;9.35;;;;;;;1.37;74.68;96950.13;1796059;80;21107;-82
2020/12/15 07:26:16;;;;;;;17.00;8.58;;;;;;;1.66;74.66;96949.21;1795701;80;21132;-82
2020/12/15 07:28:45;;;;;;;16.50;9.13;;;;;;;2.01;73.59;96947.72;1795346;80;21119;-82
2020/12/15 07:31:14;;;;;;;15.80;8.70;;;;;;;2.20;72.02;96947.23;1795983;80;21643;-82
2020/12/15 07:33:41;;;;;;;16.35;8.90;;;;;;;2.38;72.14;96944.61;1795765;80;21531;-82
2020/12/15 07:36:16;;;;;;;15.70;9.30;;;;;;;2.52;71.40;96945.27;1795756;80;21156;-82
2020/12/15 07:38:48;;;;;;;14.73;8.75;;;;;;;2.80;72.24;96943.44;1793315;80;21147;-82
2020/12/15 07:41:17;;;;;;;13.18;7.75;;;;;;;2.94;70.78;96950.61;1793135;80;21155;-81
2020/12/15 07:43:55;;;;;;;14.33;8.50;;;;;;;3.19;71.08;96949.18;1792921;80;21204;-82
2020/12/15 07:46:23;;;;;;;13.20;8.45;;;;;;;3.26;70.45;96949.39;1793128;80;21139;-83
2020/12/15 07:48:55;;;;;;;13.70;7.47;;;;;;;3.46;69.66;96946.47;1793163;80;21205;-83
2020/12/15 07:51:22;;;;;;;14.80;8.33;;;;;;;3.47;67.07;96949.38;1793192;80;21139;-83
2020/12/15 07:53:57;;;;;;;13.00;7.50;;;;;;;3.43;68.98;96944.31;1793146;80;21547;-82
2020/12/15 07:56:25;;;;;;;15.65;7.60;;;;;;;3.37;66.43;96945.19;1793249;80;21474;-83
2020/12/15 07:58:55;;;;;;;14.35;8.23;;;;;;;3.13;66.55;96939.61;1793117;80;21138;-83
2020/12/15 08:01:28;;;;;;;15.23;8.38;;;;;;;3.08;68.60;96942.08;1793307;80;21471;-83
2020/12/15 08:04:09;;;;;;;11.08;7.35;;;;;;;3.18;68.36;96944.45;1793461;80;21248;-83
2020/12/15 08:06:39;;;;;;;;;;;;;;;3.38;68.46;96942.88;1795392;80;21108;-82
2020/12/15 08:09:10;;;;;;;13.95;8.78;;;;;;;3.30;66.68;96946.32;1792184;80;20185;-82
2020/12/15 08:11:38;;;;;;;12.98;8.08;;;;;;;3.35;67.71;96945.92;1792825;80;21112;-82
2020/12/15 08:14:06;;;;;;;13.03;7.22;;;;;;;3.51;68.78;96943.97;1793264;80;21501;-82
2020/12/15 08:16:33;;;;;;;15.35;8.20;;;;;;;3.65;68.52;96944.56;1793188;80;21138;-82
2020/12/15 08:19:03;;;;;;;13.25;7.62;;;;;;;3.81;69.05;96947.06;1793211;80;21464;-82
2020/12/15 08:21:51;;;;;;;14.68;8.63;;;;;;;3.98;68.90;96946.67;1793332;80;21147;-82
2020/12/15 08:24:26;;;;;;;14.90;8.65;;;;;;;3.78;67.53;96939.63;1793228;80;21507;-83
2020/12/15 08:26:51;;;;;;;12.60;7.58;;;;;;;3.47;67.32;96946.76;1792841;80;21188;-82
2020/12/15 08:29:20;;;;;;;12.13;7.80;;;;;;;3.51;67.60;96937.41;1793203;80;21142;-82
2020/12/15 08:31:47;;;;;;;14.40;8.30;;;;;;;3.52;67.71;96944.28;1793051;80;21154;-82
2020/12/15 08:34:20;;;;;;;13.60;8.10;;;;;;;3.60;66.68;96936.59;1792755;80;21095;-83
2020/12/15 08:36:50;;;;;;;14.10;7.47;;;;;;;3.55;65.94;96938.59;1793082;80;21196;-82
2020/12/15 08:39:26;;;;;;;15.40;8.10;;;;;;;3.47;65.56;96942.83;1793264;80;21139;-83
2020/12/15 08:41:58;;;;;;;13.45;7.53;;;;;;;3.35;65.80;96943.30;1792857;80;21119;-82
2020/12/15 08:44:29;;;;;;;11.85;7.03;;;;;;;3.19;65.75;96953.91;1793183;80;21132;-83
2020/12/15 08:46:57;;;;;;;13.58;6.92;;;;;;;3.05;65.76;96939.91;1793144;80;21123;-82
2020/12/15 08:49:27;;;;;;;15.23;8.40;;;;;;;2.96;66.17;96948.59;1793082;80;21135;-83
2020/12/15 08:51:55;;;;;;;14.98;8.35;;;;;;;2.90;65.90;96944.23;1793178;80;21135;-83
2020/12/15 08:54:22;;;;;;;14.63;8.33;;;;;;;2.80;66.53;96949.17;1793341;80;21135;-83
2020/12/15 08:56:50;;;;;;;15.70;8.78;;;;;;;2.65;66.72;96950.36;1793075;80;21151;-83
2020/12/15 08:59:21;;;;;;;13.98;8.55;;;;;;;2.60;67.02;96949.42;1793090;80;21534;-83
2020/12/15 09:01:48;;;;;;;13.72;7.62;;;;;;;2.54;67.09;96951.63;1793378;80;21154;-83
2020/12/15 09:04:27;;;;;;;11.28;6.92;;;;;;;2.57;67.03;96951.17;1768607;80;21107;-83
2020/12/15 09:06:56;;;;;;;11.63;6.20;;;;;;;2.66;67.23;96953.27;1793488;80;21123;-83
2020/12/15 09:09:31;;;;;;;15.30;8.30;;;;;;;2.79;67.38;96949.69;1793185;80;21115;-83
2020/12/15 09:11:59;;;;;;;16.07;9.23;;;;;;;2.87;67.39;96948.60;1793026;80;21170;-83
2020/12/15 09:14:27;;;;;;;17.00;9.28;;;;;;;2.93;67.62;96940.65;1793308;80;21456;-83
2020/12/15 09:16:54;;;;;;;13.08;7.87;;;;;;;3.05;67.93;96947.77;1793170;80;21125;-83
2020/12/15 09:19:23;;;;;;;13.68;8.40;;;;;;;3.01;67.24;96950.03;1793263;80;21140;-82
2020/12/15 09:22:06;;;;;;;14.98;8.70;;;;;;;3.08;67.26;96948.62;1793219;80;21651;-83
2020/12/15 09:24:43;;;;;;;15.25;7.62;;;;;;;3.19;67.63;96943.95;1793146;80;21123;-83
2020/12/15 09:27:25;;;;;;;16.23;9.40;;;;;;;3.32;67.65;96949.00;1793115;80;21186;-83
2020/12/15 09:29:53;;;;;;;14.75;8.93;;;;;;;3.35;67.31;96956.41;1793569;80;21269;-83
2020/12/15 09:32:21;;;;;;;16.73;10.13;;;;;;;3.37;67.10;96950.42;1793035;80;21147;-83
2020/12/15 09:34:48;;;;;;;13.35;8.83;;;;;;;3.41;67.05;96954.22;1793232;80;21467;-83
2020/12/15 09:37:15;;;;;;;15.58;9.20;;;;;;;3.37;66.01;96947.80;1793357;80;21281;-83
2020/12/15 09:39:43;;;;;;;15.40;9.00;;;;;;;3.36;65.45;96958.52;1793329;80;21123;-84
2020/12/15 09:42:10;;;;;;;13.50;7.53;;;;;;;3.36;65.82;96950.14;1792920;80;21135;-84
2020/12/15 09:44:37;;;;;;;14.45;6.17;;;;;;;3.46;65.69;96946.47;1793287;80;21135;-84
2020/12/15 09:47:05;;;;;;;12.78;8.05;;;;;;;3.51;65.03;96941.34;1793320;80;21116;-84
2020/12/15 09:49:34;;;;;;;17.02;8.98;;;;;;;3.55;65.54;96952.20;1793218;80;21131;-84
2020/12/15 09:52:01;;;;;;;16.27;8.75;;;;;;;3.71;66.23;96958.61;1793190;80;21147;-84
2020/12/15 09:54:28;;;;;;;15.68;9.18;;;;;;;3.88;66.30;96961.66;1793374;80;21495;-84
2020/12/15 09:56:56;;;;;;;13.83;9.00;;;;;;;4.01;66.27;96955.91;1793608;80;21108;-84
2020/12/15 09:59:23;;;;;;;16.10;9.93;;;;;;;4.14;66.50;96951.23;1793340;80;21143;-83
2020/12/15 10:01:50;;;;;;;16.25;9.70;;;;;;;4.16;66.33;96951.80;1793339;80;21155;-83
2020/12/15 10:04:17;;;;;;;15.68;8.60;;;;;;;4.32;66.69;96950.81;1793224;80;21499;-84
2020/12/15 10:06:49;;;;;;;15.72;8.68;;;;;;;4.47;66.79;96948.52;1793400;80;21139;-84
2020/12/15 10:09:17;;;;;;;16.37;8.93;;;;;;;4.59;66.75;96944.56;1793261;80;21127;-84
2020/12/15 10:11:44;;;;;;;18.10;8.95;;;;;;;4.71;67.03;96950.08;1792825;80;21211;-84
2020/12/15 10:14:12;;;;;;;17.77;9.43;;;;;;;4.77;65.34;96943.08;1793265;80;21175;-84
2020/12/15 10:16:40;;;;;;;17.55;8.90;;;;;;;4.80;66.55;96946.58;1793263;80;21543;-84
2020/12/15 10:19:08;;;;;;;15.83;9.58;;;;;;;4.75;63.38;96946.46;1793184;80;21112;-84
2020/12/15 10:21:38;;;;;;;14.93;8.25;;;;;;;4.63;64.57;96935.98;1793335;80;21630;-84
2020/12/15 10:24:05;;;;;;;18.70;9.68;;;;;;;4.65;63.68;96930.01;1793252;80;21518;-84
2020/12/15 10:26:32;;;;;;;15.83;9.90;;;;;;;4.67;64.16;96933.20;1793434;80;21143;-84
2020/12/15 10:29:00;;;;;;;19.15;10.23;;;;;;;4.60;64.22;96930.41;1793373;80;21653;-84
2020/12/15 10:31:27;;;;;;;18.62;9.28;;;;;;;4.61;65.17;96926.23;1793258;80;21119;-84
2020/12/15 10:33:54;;;;;;;17.45;9.55;;;;;;;4.59;64.17;96926.98;1793439;80;21540;-84
2020/12/15 10:36:22;;;;;;;17.45;10.30;;;;;;;4.62;64.57;96922.57;1793488;80;21310;-84
2020/12/15 10:38:53;;;;;;;22.45;11.97;;;;;;;4.51;64.26;96929.19;1793126;80;21151;-84
2020/12/15 10:41:28;;;;;;;22.80;13.48;;;;;;;4.44;64.96;96941.11;1793355;80;21306;-84
2020/12/15 10:43:55;;;;;;;19.90;11.50;;;;;;;4.55;65.43;96940.30;1762440;81;21146;-83
2020/12/15 10:46:26;;;;;;;18.55;10.58;;;;;;;4.61;65.14;96926.23;1761997;81;21151;-84
2020/12/15 10:48:54;;;;;;;23.77;12.40;;;;;;;4.60;64.27;96921.21;1762247;81;21143;-84
2020/12/15 10:51:22;;;;;;;20.30;12.23;;;;;;;4.72;64.60;96926.72;1762120;81;21155;-84
2020/12/15 10:53:50;;;;;;;19.82;11.15;;;;;;;4.74;64.48;96921.23;1762001;81;21206;-84
2020/12/15 10:56:18;;;;;;;21.25;12.55;;;;;;;4.83;63.88;96920.36;1762020;81;21309;-84
2020/12/15 10:58:45;;;;;;;26.65;13.83;;;;;;;4.97;65.53;96915.11;1761888;81;21155;-84
2020/12/15 11:01:12;;;;;;;25.43;14.78;;;;;;;5.08;65.02;96921.36;1761975;81;21272;-84
2020/12/15 11:03:40;;;;;;;22.62;10.60;;;;;;;5.10;65.44;96916.14;1761913;81;21119;-84
2020/12/15 11:06:08;;;;;;;22.85;12.85;;;;;;;5.12;65.04;96911.45;1762174;81;21139;-84
2020/12/15 11:08:35;;;;;;;23.42;14.43;;;;;;;5.09;64.20;96915.07;1762025;81;21119;-84
2020/12/15 11:11:03;;;;;;;22.37;10.13;;;;;;;5.14;64.60;96914.63;1761969;81;21281;-84
2020/12/15 11:13:30;;;;;;;23.60;12.55;;;;;;;5.32;64.23;96913.63;1789408;80;21166;-84
2020/12/15 11:15:58;;;;;;;22.27;12.37;;;;;;;5.43;63.80;96906.19;1793361;80;21134;-84
2020/12/15 11:18:25;;;;;;;22.42;12.65;;;;;;;5.49;63.06;96904.43;1793202;80;21130;-84
2020/12/15 11:20:53;;;;;;;19.00;11.28;;;;;;;5.57;63.55;96900.91;1793270;80;21478;-83
2020/12/15 11:23:21;;;;;;;18.73;10.05;;;;;;;5.74;63.41;96902.21;1793134;80;21147;-84
2020/12/15 11:25:50;;;;;;;19.98;10.15;;;;;;;5.92;62.94;96899.91;1793375;80;21495;-84
2020/12/15 11:28:18;;;;;;;19.87;11.00;;;;;;;6.07;62.20;96895.38;1793103;80;21143;-84
2020/12/15 11:30:46;;;;;;;19.37;11.05;;;;;;;6.17;62.50;96902.88;1793119;80;21525;-84
2020/12/15 11:33:14;;;;;;;18.95;11.50;;;;;;;6.20;61.86;96890.56;1793095;80;21522;-84
2020/12/15 11:35:43;;;;;;;17.02;10.55;;;;;;;6.21;62.87;96897.42;1793272;80;21150;-84
2020/12/15 11:38:11;;;;;;;17.90;10.35;;;;;;;6.33;62.42;96895.97;1793158;80;21155;-84